Time;durP1;ratioP1;P1;durP2;ratioP2;P2;SDS_P1;SDS_P2;PMS_P1;PMS_P2;Temp;Humidity;BMP_temperature;BMP_pressure;BME280_temperature;BME280_humidity;BME280_pressure;Samples;Min_cycle;Max_cycle;Signal;HPM_P1;HPM_P2
2023/01/10 00:00:36;;;;;;;1.75;1.48;;;;;;;;;;7392822;19;20002;-71
2023/01/10 00:03:07;;;;;;;2.08;1.23;;;;;;;;;;7391865;19;20412;-72
2023/01/10 00:05:32;;;;;;;2.20;1.23;;;;;;;;;;7389917;19;20079;-72
2023/01/10 00:07:58;;;;;;;1.20;1.05;;;;;;;;;;7391338;19;20087;-72
2023/01/10 00:10:23;;;;;;;5.35;1.00;;;;;;;;;;7397044;19;20002;-72
2023/01/10 00:15:34;;;;;;;1.77;1.25;;;;;;;;;;7391197;19;20078;-72
2023/01/10 00:17:59;;;;;;;3.15;1.10;;;;;;;;;;7392091;19;20010;-73
2023/01/10 00:20:24;;;;;;;2.17;1.20;;;;;;;;;;7392145;19;20011;-73
2023/01/10 00:22:50;;;;;;;2.50;1.10;;;;;;;;;;7390662;19;20005;-73
2023/01/10 00:25:18;;;;;;;2.95;1.33;;;;;;;;;;7390435;19;20027;-73
2023/01/10 00:27:45;;;;;;;2.90;1.23;;;;;;;;;;7394932;19;20109;-73
2023/01/10 00:30:14;;;;;;;2.05;0.80;;;;;;;;;;7391823;19;20078;-73
2023/01/10 00:32:43;;;;;;;0.68;0.68;;;;;;;;;;7392802;19;20019;-72
2023/01/10 00:35:10;;;;;;;0.70;0.70;;;;;;;;;;7390838;19;20023;-73
2023/01/10 00:37:35;;;;;;;0.80;0.80;;;;;;;;;;7391842;19;20006;-73
2023/01/10 00:40:01;;;;;;;2.38;0.95;;;;;;;;;;7391798;19;20003;-71
2023/01/10 00:45:12;;;;;;;3.38;1.00;;;;;;;;;;7391941;19;20430;-73
2023/01/10 00:47:38;;;;;;;1.83;0.90;;;;;;;;;;7392433;19;20094;-71
2023/01/10 00:50:07;;;;;;;0.70;0.70;;;;;;;;;;7392713;19;20019;-72
2023/01/10 00:52:33;;;;;;;1.45;0.60;;;;;;;;;;7390213;19;19995;-71
2023/01/10 00:54:58;;;;;;;1.67;0.93;;;;;;;;;;7390622;19;20463;-73
2023/01/10 00:57:23;;;;;;;0.88;0.77;;;;;;;;;;7391015;19;19998;-72
2023/01/10 00:59:49;;;;;;;2.65;1.10;;;;;;;;;;7391600;19;20399;-73
2023/01/10 01:02:14;;;;;;;0.75;0.68;;;;;;;;;;7391011;19;19991;-72
2023/01/10 01:04:39;;;;;;;0.98;0.88;;;;;;;;;;7388091;19;20014;-72
2023/01/10 01:07:05;;;;;;;0.85;0.77;;;;;;;;;;7389410;19;20354;-72
2023/01/10 01:09:30;;;;;;;1.45;0.65;;;;;;;;;;7390957;19;19994;-73
2023/01/10 01:11:55;;;;;;;1.40;0.90;;;;;;;;;;7392379;19;19995;-72
2023/01/10 01:14:22;;;;;;;0.93;0.90;;;;;;;;;;7387915;19;20019;-71
2023/01/10 01:16:48;;;;;;;1.25;0.88;;;;;;;;;;7390882;19;19999;-73
2023/01/10 01:19:13;;;;;;;2.53;1.10;;;;;;;;;;7390483;19;20019;-73
2023/01/10 01:21:38;;;;;;;4.20;1.10;;;;;;;;;;7390322;19;20002;-72
2023/01/10 01:24:04;;;;;;;1.48;1.00;;;;;;;;;;7389078;19;20002;-71
2023/01/10 01:26:29;;;;;;;1.58;0.73;;;;;;;;;;7388402;19;20002;-73
2023/01/10 01:28:54;;;;;;;2.15;1.20;;;;;;;;;;7390165;19;20069;-71
2023/01/10 01:31:20;;;;;;;0.82;0.82;;;;;;;;;;7390775;19;20011;-72
2023/01/10 01:33:45;;;;;;;0.70;0.70;;;;;;;;;;7388877;19;20009;-72
2023/01/10 01:36:12;;;;;;;1.58;0.88;;;;;;;;;;7388459;19;20003;-73
2023/01/10 01:38:39;;;;;;;1.85;0.90;;;;;;;;;;7391398;19;20079;-73
2023/01/10 01:41:55;;;;;;;1.95;1.10;;;;;;;;;;7397577;19;19995;-72
2023/01/10 01:44:14;;;;;;;1.48;0.80;;;;;;;;;;7395803;19;20009;-72
2023/01/10 01:46:40;;;;;;;0.68;0.68;;;;;;;;;;7395078;19;20011;-71
2023/01/10 01:49:15;;;;;;;0.80;0.73;;;;;;;;;;7396137;19;20017;-72
2023/01/10 01:51:40;;;;;;;2.33;0.90;;;;;;;;;;7397202;19;20006;-73
2023/01/10 01:54:10;;;;;;;2.13;0.75;;;;;;;;;;7399569;19;20006;-74
2023/01/10 01:57:00;;;;;;;2.77;0.97;;;;;;;;;;7395070;19;20003;-72
2023/01/10 01:59:30;;;;;;;1.23;0.80;;;;;;;;;;7395791;19;20007;-72
2023/01/10 02:02:01;;;;;;;0.80;0.80;;;;;;;;;;7396888;19;20002;-72
2023/01/10 02:04:34;;;;;;;2.63;0.90;;;;;;;;;;7392934;19;20002;-72
2023/01/10 02:06:59;;;;;;;1.10;1.00;;;;;;;;;;7396164;19;19999;-72
2023/01/10 02:09:53;;;;;;;1.83;1.02;;;;;;;;;;7394786;19;20082;-73
2023/01/10 02:12:18;;;;;;;3.80;1.17;;;;;;;;;;7396389;19;20002;-72
2023/01/10 02:14:48;;;;;;;2.53;1.30;;;;;;;;;;7394887;19;20007;-72
2023/01/10 02:17:14;;;;;;;3.00;1.17;;;;;;;;;;7396722;19;19998;-72
2023/01/10 02:20:02;;;;;;;2.10;1.00;;;;;;;;;;7396837;19;20036;-72
2023/01/10 02:22:46;;;;;;;2.45;1.10;;;;;;;;;;7396294;19;20449;-72
2023/01/10 02:25:34;;;;;;;3.33;1.75;;;;;;;;;;7394547;19;20034;-73
2023/01/10 02:28:37;;;;;;;3.13;1.38;;;;;;;;;;7396410;19;20006;-72
2023/01/10 02:31:25;;;;;;;6.80;1.60;;;;;;;;;;7399570;19;20390;-72
2023/01/10 02:34:17;;;;;;;2.88;1.10;;;;;;;;;;7394590;19;20062;-72
2023/01/10 02:36:54;;;;;;;5.38;1.38;;;;;;;;;;7395804;19;19998;-72
2023/01/10 02:39:33;;;;;;;5.65;2.13;;;;;;;;;;7395526;19;20006;-72
2023/01/10 02:42:06;;;;;;;2.53;1.40;;;;;;;;;;7395454;19;20006;-71
2023/01/10 02:44:39;;;;;;;4.75;1.80;;;;;;;;;;7393806;19;19995;-73
2023/01/10 02:47:07;;;;;;;4.78;1.38;;;;;;;;;;7393119;19;20447;-71
2023/01/10 02:49:41;;;;;;;2.42;1.40;;;;;;;;;;7393519;19;20002;-72
2023/01/10 02:52:06;;;;;;;5.47;1.83;;;;;;;;;;7393068;19;20002;-72
2023/01/10 02:54:32;;;;;;;7.22;1.27;;;;;;;;;;7393496;19;20020;-72
2023/01/10 02:57:15;;;;;;;3.20;1.50;;;;;;;;;;7395464;19;19987;-72
2023/01/10 03:00:07;;;;;;;4.75;1.60;;;;;;;;;;7395042;19;19999;-72
2023/01/10 03:02:48;;;;;;;4.25;1.50;;;;;;;;;;7393579;19;20003;-72
2023/01/10 03:05:38;;;;;;;4.90;1.73;;;;;;;;;;7393855;19;20002;-72
2023/01/10 03:08:34;;;;;;;2.65;1.42;;;;;;;;;;7395335;19;20223;-71
2023/01/10 03:11:05;;;;;;;3.47;1.58;;;;;;;;;;7397158;19;20499;-71
2023/01/10 03:13:42;;;;;;;3.63;1.52;;;;;;;;;;7393440;19;20678;-71
2023/01/10 03:16:11;;;;;;;3.97;1.50;;;;;;;;;;7394716;19;20002;-71
2023/01/10 03:19:06;;;;;;;4.40;1.20;;;;;;;;;;7396656;19;19991;-72
2023/01/10 03:21:33;;;;;;;6.35;1.50;;;;;;;;;;7395271;19;20002;-72
2023/01/10 03:24:04;;;;;;;3.13;1.40;;;;;;;;;;7395332;19;20463;-72
2023/01/10 03:26:38;;;;;;;7.28;1.65;;;;;;;;;;7393795;19;19998;-72
2023/01/10 03:29:09;;;;;;;4.00;1.67;;;;;;;;;;7396288;19;19999;-72
2023/01/10 03:31:49;;;;;;;3.60;1.30;;;;;;;;;;7392214;19;20015;-71
2023/01/10 03:34:15;;;;;;;5.50;1.60;;;;;;;;;;7389954;19;19999;-72
2023/01/10 03:37:13;;;;;;;2.75;1.27;;;;;;;;;;7387415;19;20021;-72
2023/01/10 03:39:51;;;;;;;2.35;1.50;;;;;;;;;;7389507;19;20355;-72
2023/01/10 03:45:48;;;;;;;3.60;1.65;;;;;;;;;;7391887;19;20365;-73
2023/01/10 03:48:15;;;;;;;7.65;1.80;;;;;;;;;;7392000;19;20090;-72
2023/01/10 03:50:43;;;;;;;6.53;1.80;;;;;;;;;;7393332;19;20003;-72
2023/01/10 03:53:11;;;;;;;3.95;1.80;;;;;;;;;;7391686;19;20002;-72
2023/01/10 03:55:39;;;;;;;5.97;2.15;;;;;;;;;;7397135;19;20007;-72
2023/01/10 03:58:06;;;;;;;3.92;1.65;;;;;;;;;;7393370;19;20051;-72
2023/01/10 04:00:31;;;;;;;6.03;1.85;;;;;;;;;;7393436;19;20009;-72
2023/01/10 04:02:58;;;;;;;7.13;2.08;;;;;;;;;;7392518;19;20003;-72
2023/01/10 04:05:23;;;;;;;9.65;2.20;;;;;;;;;;7395403;19;20473;-72
2023/01/10 04:07:48;;;;;;;5.25;2.20;;;;;;;;;;7391880;19;20027;-71
2023/01/10 04:10:14;;;;;;;8.43;2.20;;;;;;;;;;7392797;19;20367;-72
2023/01/10 04:12:40;;;;;;;3.22;2.03;;;;;;;;;;7391243;19;20028;-73
2023/01/10 04:15:06;;;;;;;6.47;2.47;;;;;;;;;;7390921;19;20066;-73
2023/01/10 04:17:31;;;;;;;4.93;2.30;;;;;;;;;;7393212;19;20074;-71
2023/01/10 04:19:56;;;;;;;5.93;2.20;;;;;;;;;;7392409;19;20088;-72
2023/01/10 04:22:22;;;;;;;8.50;2.22;;;;;;;;;;7390139;19;20002;-73
2023/01/10 04:24:50;;;;;;;5.60;2.00;;;;;;;;;;7389294;19;20010;-73
2023/01/10 04:27:15;;;;;;;5.75;2.25;;;;;;;;;;7391632;19;20027;-72
2023/01/10 04:29:41;;;;;;;11.00;2.50;;;;;;;;;;7392050;19;19991;-72
2023/01/10 04:32:06;;;;;;;10.18;2.15;;;;;;;;;;7391617;19;20405;-72
2023/01/10 04:34:31;;;;;;;5.90;2.20;;;;;;;;;;7393994;19;20005;-73
2023/01/10 04:36:57;;;;;;;5.35;2.22;;;;;;;;;;7391711;19;19995;-73
2023/01/10 04:39:22;;;;;;;6.97;2.50;;;;;;;;;;7391820;19;20031;-72
2023/01/10 04:41:48;;;;;;;8.10;2.15;;;;;;;;;;7393738;19;19998;-73
2023/01/10 04:44:14;;;;;;;7.75;2.58;;;;;;;;;;7390512;19;19998;-71
2023/01/10 04:46:39;;;;;;;7.15;2.13;;;;;;;;;;7389179;19;20340;-71
2023/01/10 04:49:05;;;;;;;7.57;2.25;;;;;;;;;;7394000;19;20500;-71
2023/01/10 04:51:30;;;;;;;9.52;2.88;;;;;;;;;;7389723;19;20035;-72
2023/01/10 04:53:55;;;;;;;7.75;2.42;;;;;;;;;;7389814;19;20054;-72
2023/01/10 04:56:22;;;;;;;11.15;2.78;;;;;;;;;;7389558;19;19995;-71
2023/01/10 04:58:48;;;;;;;5.22;2.17;;;;;;;;;;7391105;19;20005;-73
2023/01/10 05:01:17;;;;;;;7.13;2.08;;;;;;;;;;7390957;19;20062;-71
2023/01/10 05:03:42;;;;;;;6.32;2.15;;;;;;;;;;7389502;19;20011;-73
2023/01/10 05:06:08;;;;;;;5.63;2.30;;;;;;;;;;7389445;19;19998;-73
2023/01/10 05:08:34;;;;;;;6.50;2.30;;;;;;;;;;7389226;19;20001;-71
2023/01/10 05:10:59;;;;;;;6.90;2.28;;;;;;;;;;7390934;19;20003;-70
2023/01/10 05:13:25;;;;;;;8.63;2.45;;;;;;;;;;7387779;19;20019;-73
2023/01/10 05:15:57;;;;;;;6.13;2.38;;;;;;;;;;7394044;19;19999;-74
2023/01/10 05:18:27;;;;;;;8.18;2.40;;;;;;;;;;7390691;19;19994;-71
2023/01/10 05:20:58;;;;;;;8.70;2.72;;;;;;;;;;7391068;19;19998;-73
2023/01/10 05:23:24;;;;;;;3.90;1.92;;;;;;;;;;7388676;19;19987;-72
2023/01/10 05:25:49;;;;;;;10.02;2.33;;;;;;;;;;7392808;19;19999;-72
2023/01/10 05:28:14;;;;;;;5.50;2.10;;;;;;;;;;7392276;19;20028;-73
2023/01/10 05:30:39;;;;;;;9.10;2.20;;;;;;;;;;7393822;19;20018;-73
2023/01/10 05:33:05;;;;;;;4.07;2.10;;;;;;;;;;7392463;19;21050;-72
2023/01/10 05:35:30;;;;;;;8.38;2.05;;;;;;;;;;7392113;19;20536;-73
2023/01/10 05:37:56;;;;;;;9.20;1.85;;;;;;;;;;7391687;19;19991;-73
2023/01/10 05:40:21;;;;;;;9.02;2.60;;;;;;;;;;7389826;19;19999;-72
2023/01/10 05:42:46;;;;;;;10.32;2.58;;;;;;;;;;7389561;19;20161;-71
2023/01/10 05:45:12;;;;;;;7.65;2.42;;;;;;;;;;7380933;19;19987;-73
2023/01/10 05:47:37;;;;;;;12.82;2.40;;;;;;;;;;7387475;19;20083;-72
2023/01/10 05:50:03;;;;;;;11.60;2.58;;;;;;;;;;7383442;19;19994;-73
2023/01/10 05:52:28;;;;;;;7.38;2.28;;;;;;;;;;7384965;19;20301;-72
2023/01/10 05:54:53;;;;;;;3.42;1.80;;;;;;;;;;7383483;19;20088;-72
2023/01/10 05:57:20;;;;;;;11.68;2.15;;;;;;;;;;7385279;19;20025;-72
2023/01/10 05:59:46;;;;;;;4.53;2.08;;;;;;;;;;7389459;19;20077;-72
2023/01/10 06:02:11;;;;;;;5.10;2.13;;;;;;;;;;7389826;19;20002;-72
2023/01/10 06:04:36;;;;;;;8.52;2.53;;;;;;;;;;7388286;19;20007;-72
2023/01/10 06:07:02;;;;;;;11.70;2.55;;;;;;;;;;7392533;19;20009;-72
2023/01/10 06:09:27;;;;;;;7.65;2.00;;;;;;;;;;7392552;19;20107;-73
2023/01/10 06:11:52;;;;;;;10.25;2.38;;;;;;;;;;7389209;19;20005;-73
2023/01/10 06:14:18;;;;;;;7.03;2.45;;;;;;;;;;7386606;19;20002;-74
2023/01/10 06:16:44;;;;;;;6.95;1.83;;;;;;;;;;7391386;19;20014;-74
2023/01/10 06:19:10;;;;;;;3.72;1.90;;;;;;;;;;7391301;19;20071;-74
2023/01/10 06:21:35;;;;;;;6.63;2.00;;;;;;;;;;7392260;19;20461;-74
2023/01/10 06:24:01;;;;;;;7.93;2.17;;;;;;;;;;7390011;19;20329;-76
2023/01/10 06:26:26;;;;;;;5.72;2.13;;;;;;;;;;7397134;19;20005;-73
2023/01/10 06:28:52;;;;;;;6.00;2.08;;;;;;;;;;7397068;19;20002;-73
2023/01/10 06:31:17;;;;;;;6.85;2.08;;;;;;;;;;7397309;19;20329;-73
2023/01/10 06:33:43;;;;;;;9.65;2.55;;;;;;;;;;7393636;19;19990;-75
2023/01/10 06:36:09;;;;;;;5.65;1.90;;;;;;;;;;7388717;19;20046;-73
2023/01/10 06:38:34;;;;;;;7.53;2.15;;;;;;;;;;7394783;19;19999;-74
2023/01/10 06:41:11;;;;;;;9.07;2.10;;;;;;;;;;7394579;19;20111;-74
2023/01/10 06:43:40;;;;;;;10.32;2.13;;;;;;;;;;7395246;19;20503;-74
2023/01/10 06:46:08;;;;;;;10.65;3.78;;;;;;;;;;7391277;19;20591;-74
2023/01/10 06:48:33;;;;;;;3.78;1.80;;;;;;;;;;7393992;19;20004;-74
2023/01/10 06:50:59;;;;;;;14.65;4.47;;;;;;;;;;7395567;19;20105;-71
2023/01/10 06:53:24;;;;;;;13.00;3.10;;;;;;;;;;7397802;19;20002;-75
2023/01/10 06:55:49;;;;;;;4.97;1.90;;;;;;;;;;7400687;19;20010;-73
2023/01/10 06:58:17;;;;;;;5.15;1.95;;;;;;;;;;7401866;19;20014;-77
2023/01/10 07:00:42;;;;;;;6.50;2.35;;;;;;;;;;7399434;19;20002;-78
2023/01/10 07:03:08;;;;;;;12.43;3.28;;;;;;;;;;7399193;19;20064;-78
2023/01/10 07:05:33;;;;;;;5.95;2.25;;;;;;;;;;7391668;19;19998;-79
2023/01/10 07:08:00;;;;;;;5.88;1.75;;;;;;;;;;7390377;19;19995;-79
2023/01/10 07:10:26;;;;;;;4.55;1.90;;;;;;;;;;7395880;19;20054;-78
2023/01/10 07:12:54;;;;;;;8.65;1.90;;;;;;;;;;7397534;19;20051;-79
2023/01/10 07:15:20;;;;;;;4.10;1.88;;;;;;;;;;7399698;19;20007;-78
2023/01/10 07:17:45;;;;;;;6.05;1.75;;;;;;;;;;7396864;19;19982;-76
2023/01/10 07:20:11;;;;;;;3.00;1.65;;;;;;;;;;7395242;19;20010;-78
2023/01/10 07:22:36;;;;;;;8.32;2.13;;;;;;;;;;7399139;19;19990;-77
2023/01/10 07:25:02;;;;;;;9.43;2.08;;;;;;;;;;7406906;19;20409;-79
2023/01/10 07:27:29;;;;;;;11.57;2.00;;;;;;;;;;7407839;19;20023;-78
2023/01/10 07:29:55;;;;;;;5.80;2.15;;;;;;;;;;7408454;19;19997;-78
2023/01/10 07:32:20;;;;;;;7.63;2.13;;;;;;;;;;7405656;19;19995;-77
2023/01/10 07:34:45;;;;;;;9.25;2.58;;;;;;;;;;7393201;19;20002;-78
2023/01/10 07:37:11;;;;;;;4.53;2.00;;;;;;;;;;7393078;19;19999;-77
2023/01/10 07:39:36;;;;;;;4.95;2.35;;;;;;;;;;7394615;19;20023;-77
2023/01/10 07:42:01;;;;;;;7.43;2.20;;;;;;;;;;7394523;19;19994;-76
2023/01/10 07:44:27;;;;;;;13.85;2.80;;;;;;;;;;7392620;19;20351;-77
2023/01/10 07:46:52;;;;;;;3.67;2.03;;;;;;;;;;7393890;19;19991;-77
2023/01/10 07:49:17;;;;;;;9.18;2.10;;;;;;;;;;7395882;19;19994;-78
2023/01/10 07:51:45;;;;;;;5.78;2.28;;;;;;;;;;7391015;19;20082;-78
2023/01/10 07:54:11;;;;;;;7.65;2.33;;;;;;;;;;7392794;19;20330;-77
2023/01/10 07:56:37;;;;;;;8.80;2.95;;;;;;;;;;7392092;19;20003;-78
2023/01/10 07:59:02;;;;;;;9.77;2.30;;;;;;;;;;7393789;19;19999;-79
2023/01/10 08:01:29;;;;;;;9.88;2.65;;;;;;;;;;7392322;19;20009;-77
2023/01/10 08:03:55;;;;;;;9.10;2.28;;;;;;;;;;7392273;19;20460;-78
2023/01/10 08:06:21;;;;;;;7.97;2.42;;;;;;;;;;7391192;19;20019;-77
2023/01/10 08:08:46;;;;;;;12.80;2.50;;;;;;;;;;7391865;19;20006;-78
2023/01/10 08:11:11;;;;;;;5.20;2.25;;;;;;;;;;7394073;19;20005;-78
2023/01/10 08:13:37;;;;;;;10.20;2.85;;;;;;;;;;7392343;19;20354;-78
2023/01/10 08:16:04;;;;;;;7.38;3.10;;;;;;;;;;7390128;19;20055;-78
2023/01/10 08:18:30;;;;;;;7.30;2.50;;;;;;;;;;7393325;19;19999;-78
2023/01/10 08:20:55;;;;;;;7.68;2.55;;;;;;;;;;7397430;19;20349;-76
2023/01/10 08:23:20;;;;;;;8.65;2.60;;;;;;;;;;7391522;19;20003;-78
2023/01/10 08:25:46;;;;;;;11.00;2.70;;;;;;;;;;7391550;19;19998;-77
2023/01/10 08:28:12;;;;;;;6.85;2.38;;;;;;;;;;7390594;19;20002;-78
2023/01/10 08:30:38;;;;;;;8.95;2.15;;;;;;;;;;7391548;19;19998;-77
2023/01/10 08:33:04;;;;;;;12.25;2.55;;;;;;;;;;7391548;19;19998;-78
2023/01/10 08:35:30;;;;;;;13.13;2.45;;;;;;;;;;7394898;19;19998;-77
2023/01/10 08:37:59;;;;;;;9.00;2.10;;;;;;;;;;7392971;19;20002;-76
2023/01/10 08:40:25;;;;;;;12.13;2.15;;;;;;;;;;7392481;19;20055;-78
2023/01/10 08:43:02;;;;;;;9.85;2.20;;;;;;;;;;7388984;19;20007;-75
2023/01/10 08:45:28;;;;;;;10.75;1.90;;;;;;;;;;7391421;19;19998;-79
2023/01/10 08:47:54;;;;;;;10.63;2.20;;;;;;;;;;7387720;19;19999;-77
2023/01/10 08:50:20;;;;;;;15.60;2.40;;;;;;;;;;7391826;19;20006;-77
2023/01/10 08:52:45;;;;;;;13.75;2.35;;;;;;;;;;7390429;19;20033;-77
2023/01/10 08:55:10;;;;;;;9.20;2.35;;;;;;;;;;7391712;19;20002;-78
2023/01/10 08:57:36;;;;;;;9.93;2.35;;;;;;;;;;7392477;19;19995;-78
2023/01/10 09:00:02;;;;;;;10.40;2.40;;;;;;;;;;7392265;19;20018;-77
2023/01/10 09:02:27;;;;;;;11.40;2.60;;;;;;;;;;7391589;19;20074;-78
2023/01/10 09:04:53;;;;;;;10.45;2.53;;;;;;;;;;7390676;19;20499;-78
2023/01/10 09:07:18;;;;;;;8.35;2.40;;;;;;;;;;7389885;19;20424;-77
2023/01/10 09:09:43;;;;;;;11.90;2.47;;;;;;;;;;7392156;19;19994;-78
2023/01/10 09:14:53;;;;;;;12.05;2.15;;;;;;;;;;7390515;19;20002;-80
2023/01/10 09:17:18;;;;;;;8.45;2.33;;;;;;;;;;7392958;19;19990;-78
2023/01/10 09:19:43;;;;;;;6.30;1.70;;;;;;;;;;7398006;19;20005;-79
2023/01/10 09:22:09;;;;;;;10.90;2.80;;;;;;;;;;7396095;19;20002;-77
2023/01/10 09:24:36;;;;;;;15.77;2.17;;;;;;;;;;7392988;19;20078;-79
2023/01/10 09:27:01;;;;;;;7.43;1.90;;;;;;;;;;7392011;19;19991;-78
2023/01/10 09:29:27;;;;;;;11.95;2.28;;;;;;;;;;7392072;19;19987;-79
2023/01/10 09:31:52;;;;;;;7.68;2.08;;;;;;;;;;7392025;19;20034;-78
2023/01/10 09:34:17;;;;;;;8.82;1.98;;;;;;;;;;7390588;19;20003;-77
2023/01/10 09:36:43;;;;;;;12.73;2.55;;;;;;;;;;7391883;19;19991;-78
2023/01/10 09:39:08;;;;;;;7.70;1.80;;;;;;;;;;7391443;19;20014;-77
2023/01/10 09:42:02;;;;;;;6.30;1.75;;;;;;;;;;7391459;19;19994;-76
2023/01/10 09:45:01;;;;;;;10.32;2.53;;;;;;;;;;7390053;19;20014;-77
2023/01/10 09:47:54;;;;;;;8.88;1.95;;;;;;;;;;7390516;19;19995;-77
2023/01/10 09:50:34;;;;;;;7.10;2.60;;;;;;;;;;7388781;19;20066;-76
2023/01/10 09:53:20;;;;;;;10.23;2.25;;;;;;;;;;7389043;19;20093;-80
2023/01/10 09:55:54;;;;;;;8.10;1.75;;;;;;;;;;7391776;19;20066;-79
2023/01/10 09:58:26;;;;;;;8.05;2.00;;;;;;;;;;7392331;19;19995;-77
2023/01/10 10:00:59;;;;;;;10.20;1.95;;;;;;;;;;7396425;19;20002;-77
2023/01/10 10:03:42;;;;;;;10.35;2.40;;;;;;;;;;7395000;19;20005;-77
2023/01/10 10:06:12;;;;;;;12.23;2.30;;;;;;;;;;7395536;19;20419;-78
2023/01/10 10:08:39;;;;;;;8.18;2.03;;;;;;;;;;7395060;19;19991;-77
2023/01/10 10:11:12;;;;;;;11.48;2.10;;;;;;;;;;7399300;19;20069;-78
2023/01/10 10:13:57;;;;;;;5.30;1.80;;;;;;;;;;7396064;19;19990;-78
2023/01/10 10:16:29;;;;;;;9.25;1.90;;;;;;;;;;7393737;19;19998;-78
2023/01/10 10:19:04;;;;;;;12.85;3.03;;;;;;;;;;7392162;19;20015;-78
2023/01/10 10:21:42;;;;;;;13.40;2.58;;;;;;;;;;7398236;19;20015;-77
2023/01/10 10:24:19;;;;;;;7.65;1.95;;;;;;;;;;7387586;19;20062;-78
2023/01/10 10:26:58;;;;;;;6.85;1.98;;;;;;;;;;7391880;19;20748;-73
2023/01/10 10:29:46;;;;;;;15.07;2.42;;;;;;;;;;7397370;19;20007;-78
2023/01/10 10:32:41;;;;;;;8.10;2.25;;;;;;;;;;7404094;19;20018;-78
2023/01/10 10:35:29;;;;;;;9.20;2.10;;;;;;;;;;7404017;19;20024;-77
2023/01/10 10:38:07;;;;;;;11.20;2.38;;;;;;;;;;7396472;19;20364;-75
2023/01/10 10:40:37;;;;;;;12.48;2.67;;;;;;;;;;7397958;19;20039;-73
2023/01/10 10:43:23;;;;;;;10.25;2.10;;;;;;;;;;7397457;19;20410;-81
2023/01/10 10:46:11;;;;;;;13.35;2.22;;;;;;;;;;7391347;19;20046;-77
2023/01/10 10:48:56;;;;;;;14.50;2.30;;;;;;;;;;7394823;19;20433;-78
2023/01/10 10:51:26;;;;;;;12.52;2.60;;;;;;;;;;7389315;19;20014;-74
2023/01/10 10:53:54;;;;;;;10.75;2.03;;;;;;;;;;7390340;19;20025;-73
2023/01/10 10:56:23;;;;;;;9.13;2.00;;;;;;;;;;7394999;19;20441;-74
2023/01/10 10:58:52;;;;;;;8.10;2.05;;;;;;;;;;7398958;19;20475;-73
2023/01/10 11:01:18;;;;;;;12.55;2.45;;;;;;;;;;7388434;19;20034;-75
2023/01/10 11:03:47;;;;;;;12.85;2.50;;;;;;;;;;7390723;19;20006;-73
2023/01/10 11:06:14;;;;;;;9.70;2.08;;;;;;;;;;7393537;19;20026;-77
2023/01/10 11:08:44;;;;;;;10.48;2.40;;;;;;;;;;7395934;19;19994;-76
2023/01/10 11:11:24;;;;;;;4.47;1.55;;;;;;;;;;7393777;19;20010;-73
2023/01/10 11:13:58;;;;;;;11.50;2.33;;;;;;;;;;7394811;19;20010;-74
2023/01/10 11:16:35;;;;;;;11.85;2.50;;;;;;;;;;7392741;19;19999;-73
2023/01/10 11:19:08;;;;;;;5.82;1.98;;;;;;;;;;7393914;19;20014;-75
2023/01/10 11:21:33;;;;;;;12.55;2.40;;;;;;;;;;7397102;19;20009;-72
2023/01/10 11:23:59;;;;;;;9.88;1.90;;;;;;;;;;7395055;19;20002;-74
2023/01/10 11:26:29;;;;;;;11.65;2.30;;;;;;;;;;7390758;19;20019;-73
2023/01/10 11:29:12;;;;;;;9.23;2.42;;;;;;;;;;7391652;19;20028;-74
2023/01/10 11:31:38;;;;;;;13.18;2.45;;;;;;;;;;7394840;19;20011;-74
2023/01/10 11:34:07;;;;;;;13.52;2.42;;;;;;;;;;7391604;19;20027;-75
2023/01/10 11:36:58;;;;;;;10.48;2.20;;;;;;;;;;7394694;19;20476;-74
2023/01/10 11:39:24;;;;;;;11.02;2.50;;;;;;;;;;7392465;19;20381;-73
2023/01/10 11:41:52;;;;;;;9.15;2.63;;;;;;;;;;7393554;19;20038;-75
2023/01/10 11:44:24;;;;;;;11.63;3.15;;;;;;;;;;7391211;19;20066;-72
2023/01/10 11:46:56;;;;;;;9.93;2.05;;;;;;;;;;7393102;19;20007;-74
2023/01/10 11:49:34;;;;;;;12.20;2.60;;;;;;;;;;7391458;19;20030;-76
2023/01/10 11:52:05;;;;;;;13.27;2.30;;;;;;;;;;7392231;19;20437;-76
2023/01/10 11:54:31;;;;;;;10.68;2.45;;;;;;;;;;7391022;19;20011;-76
2023/01/10 11:57:07;;;;;;;10.32;2.83;;;;;;;;;;7394321;19;20017;-76
2023/01/10 11:59:33;;;;;;;9.13;2.15;;;;;;;;;;7395096;19;20018;-77
2023/01/10 12:02:22;;;;;;;10.68;2.10;;;;;;;;;;7394203;19;20013;-76
2023/01/10 12:04:49;;;;;;;14.95;3.17;;;;;;;;;;7389331;19;20338;-76
2023/01/10 12:07:15;;;;;;;11.32;2.30;;;;;;;;;;7396211;19;20014;-80
2023/01/10 12:09:57;;;;;;;12.93;2.30;;;;;;;;;;7395833;19;20010;-82
2023/01/10 12:12:33;;;;;;;16.75;2.92;;;;;;;;;;7398433;19;20058;-77
2023/01/10 12:15:21;;;;;;;11.75;2.47;;;;;;;;;;7393622;19;20081;-76
2023/01/10 12:17:46;;;;;;;8.65;2.30;;;;;;;;;;7392698;19;20024;-74
2023/01/10 12:20:13;;;;;;;11.38;2.45;;;;;;;;;;7395076;19;20472;-74
2023/01/10 12:22:41;;;;;;;6.82;2.50;;;;;;;;;;7394497;19;20476;-76
2023/01/10 12:25:34;;;;;;;10.63;3.13;;;;;;;;;;7391656;19;20026;-75
2023/01/10 12:28:00;;;;;;;7.40;2.15;;;;;;;;;;7390832;19;20541;-73
2023/01/10 12:30:25;;;;;;;8.55;2.78;;;;;;;;;;7396489;19;20027;-74
2023/01/10 12:32:52;;;;;;;10.40;2.67;;;;;;;;;;7394553;19;20006;-75
2023/01/10 12:35:31;;;;;;;12.90;2.95;;;;;;;;;;7390256;19;20006;-75
2023/01/10 12:38:07;;;;;;;9.80;2.83;;;;;;;;;;7394557;19;20085;-79
2023/01/10 12:41:02;;;;;;;11.77;3.15;;;;;;;;;;7394802;19;20086;-79
2023/01/10 12:46:21;;;;;;;14.13;3.10;;;;;;;;;;7388152;19;20021;-75
2023/01/10 12:48:57;;;;;;;10.60;2.55;;;;;;;;;;7394512;19;20077;-75
2023/01/10 12:51:25;;;;;;;15.27;3.22;;;;;;;;;;7396440;19;19999;-74
2023/01/10 12:54:00;;;;;;;11.63;3.70;;;;;;;;;;7390827;19;20460;-74
2023/01/10 12:56:26;;;;;;;11.80;3.05;;;;;;;;;;7390535;19;20023;-75
2023/01/10 12:58:56;;;;;;;13.52;3.42;;;;;;;;;;7396574;19;20023;-74
2023/01/10 13:01:31;;;;;;;14.45;3.10;;;;;;;;;;7391746;19;20006;-75
2023/01/10 13:04:04;;;;;;;13.27;2.50;;;;;;;;;;7394703;19;20066;-76
2023/01/10 13:06:38;;;;;;;16.83;2.60;;;;;;;;;;7392672;19;20029;-75
2023/01/10 13:09:12;;;;;;;7.40;2.30;;;;;;;;;;7391594;19;20001;-76
2023/01/10 13:12:01;;;;;;;6.85;2.25;;;;;;;;;;7390592;19;20029;-76
2023/01/10 13:15:10;;;;;;;11.43;2.42;;;;;;;;;;7389529;19;20026;-75
2023/01/10 13:17:45;;;;;;;9.02;2.45;;;;;;;;;;7389349;19;20006;-74
2023/01/10 13:20:25;;;;;;;11.38;2.78;;;;;;;;;;7388911;19;20011;-74
2023/01/10 13:22:54;;;;;;;13.50;2.40;;;;;;;;;;7385969;19;20010;-73
2023/01/10 13:25:29;;;;;;;10.63;2.08;;;;;;;;;;7389845;19;20403;-74
2023/01/10 13:28:17;;;;;;;50.88;12.40;;;;;;;;;;7386031;19;20504;-78
2023/01/10 13:30:42;;;;;;;28.85;7.32;;;;;;;;;;7387006;19;20134;-80
2023/01/10 13:33:27;;;;;;;17.65;4.40;;;;;;;;;;7387810;19;20013;-79
2023/01/10 13:35:57;;;;;;;13.10;2.20;;;;;;;;;;7397668;19;20137;-76
2023/01/10 13:38:34;;;;;;;11.93;2.25;;;;;;;;;;7399657;19;20325;-77
2023/01/10 13:41:05;;;;;;;14.40;3.00;;;;;;;;;;7401123;19;20028;-75
2023/01/10 13:43:35;;;;;;;;;;;;;;;;;;7397044;19;20098;-76
2023/01/10 13:46:15;;;;;;;8.98;2.22;;;;;;;;;;7396013;19;20325;-77
2023/01/10 13:48:58;;;;;;;14.63;2.47;;;;;;;;;;7395606;19;20023;-76
2023/01/10 13:51:24;;;;;;;14.18;2.80;;;;;;;;;;7401178;19;20023;-76
2023/01/10 13:53:55;;;;;;;15.55;2.85;;;;;;;;;;7398769;19;20011;-78
2023/01/10 13:56:33;;;;;;;12.17;2.57;;;;;;;;;;7397364;19;20038;-76
2023/01/10 14:04:38;;;;;;;12.82;2.30;;;;;;;;;;7396482;19;20039;-76
2023/01/10 14:07:12;;;;;;;9.83;2.97;;;;;;;;;;7400359;19;20013;-73
2023/01/10 14:09:44;;;;;;;15.68;2.70;;;;;;;;;;7397909;19;20003;-76
2023/01/10 14:12:34;;;;;;;9.40;2.70;;;;;;;;;;7399793;19;20345;-74
2023/01/10 14:15:04;;;;;;;18.42;4.07;;;;;;;;;;7396489;19;20015;-73
2023/01/10 14:17:32;;;;;;;22.67;5.03;;;;;;;;;;7393331;19;20023;-75
2023/01/10 14:20:06;;;;;;;19.83;3.03;;;;;;;;;;7395177;19;20011;-75
2023/01/10 14:22:35;;;;;;;11.10;2.40;;;;;;;;;;7396677;19;20030;-73
2023/01/10 14:25:04;;;;;;;7.38;2.20;;;;;;;;;;7398896;19;20361;-73
2023/01/10 14:27:51;;;;;;;13.63;2.35;;;;;;;;;;7388721;19;20002;-76
2023/01/10 14:30:20;;;;;;;8.13;1.90;;;;;;;;;;7398995;19;20645;-74
2023/01/10 14:32:49;;;;;;;14.55;2.42;;;;;;;;;;7398481;19;20053;-73
2023/01/10 14:35:20;;;;;;;17.23;2.58;;;;;;;;;;7395763;19;20092;-73
2023/01/10 14:37:55;;;;;;;12.00;2.10;;;;;;;;;;7398124;19;20014;-76
2023/01/10 14:40:27;;;;;;;11.55;2.10;;;;;;;;;;7398825;19;20384;-76
2023/01/10 14:42:57;;;;;;;16.33;2.50;;;;;;;;;;7398937;19;20010;-78
2023/01/10 14:45:40;;;;;;;8.70;2.05;;;;;;;;;;7396778;19;21040;-80
2023/01/10 14:48:33;;;;;;;11.55;2.47;;;;;;;;;;7397503;19;20015;-80
2023/01/10 14:51:08;;;;;;;9.65;2.38;;;;;;;;;;7399012;19;19999;-78
2023/01/10 14:53:33;;;;;;;15.77;2.80;;;;;;;;;;7391054;19;20023;-79
2023/01/10 14:55:58;;;;;;;11.27;2.33;;;;;;;;;;7392344;19;20034;-79
2023/01/10 14:58:24;;;;;;;15.38;2.72;;;;;;;;;;7394094;19;20332;-78
2023/01/10 15:00:50;;;;;;;12.00;2.70;;;;;;;;;;7395042;19;20037;-77
2023/01/10 15:03:21;;;;;;;11.70;2.25;;;;;;;;;;7395227;19;20011;-77
2023/01/10 15:05:53;;;;;;;9.93;2.90;;;;;;;;;;7389933;19;20015;-78
2023/01/10 15:08:20;;;;;;;10.52;2.83;;;;;;;;;;7394825;19;20024;-77
2023/01/10 15:10:47;;;;;;;16.83;3.20;;;;;;;;;;7391172;19;20010;-77
2023/01/10 15:13:16;;;;;;;19.52;3.47;;;;;;;;;;7395286;19;20343;-78
2023/01/10 15:15:44;;;;;;;10.20;2.88;;;;;;;;;;7389809;19;20006;-74
2023/01/10 15:18:27;;;;;;;16.23;2.75;;;;;;;;;;7395725;19;20011;-75